createdAt,value
2022-07-25T00:01:49.759Z,34.98
2022-07-25T00:04:18.069Z,35.27
2022-07-25T00:06:46.049Z,34.87
2022-07-25T00:09:13.176Z,35.91
2022-07-25T00:11:40.573Z,35.29
2022-07-25T00:14:08.092Z,34.82
2022-07-25T00:16:35.637Z,35.89
2022-07-25T00:19:03.254Z,35.24
2022-07-25T00:21:30.365Z,35.12
2022-07-25T00:23:57.470Z,34.85
2022-07-25T00:26:24.911Z,35.26
2022-07-25T00:28:52.041Z,35.40
2022-07-25T00:31:19.281Z,35.17
2022-07-25T00:33:46.724Z,35.66
2022-07-25T00:36:13.823Z,35.37
2022-07-25T00:38:40.934Z,35.02
2022-07-25T00:41:08.376Z,35.65
2022-07-25T00:43:35.486Z,35.61
2022-07-25T00:46:02.606Z,35.39
2022-07-25T00:48:30.334Z,35.73
2022-07-25T00:50:57.500Z,36.09
2022-07-25T00:53:24.722Z,36.33
2022-07-25T00:55:52.137Z,35.92
2022-07-25T00:58:19.350Z,36.34
2022-07-25T01:00:46.788Z,35.64
2022-07-25T01:03:14.229Z,35.38
2022-07-25T01:05:41.401Z,35.40
2022-07-25T01:08:08.974Z,35.84
2022-07-25T01:10:36.489Z,36.12
2022-07-25T01:13:03.648Z,36.17
2022-07-25T01:15:30.852Z,35.63
2022-07-25T01:17:58.218Z,35.94
2022-07-25T01:20:27.225Z,36.09
2022-07-25T01:22:54.393Z,35.68
2022-07-25T01:25:21.808Z,36.25
2022-07-25T01:27:54.654Z,35.92
2022-07-25T01:30:22.505Z,37.08
2022-07-25T01:32:49.645Z,36.29
2022-07-25T01:35:16.792Z,36.51
2022-07-25T01:37:45.791Z,36.15
2022-07-25T01:40:13.693Z,36.99
2022-07-25T01:42:41.021Z,36.55
2022-07-25T01:45:08.562Z,36.60
2022-07-25T01:47:35.696Z,37.24
2022-07-25T01:50:02.827Z,37.86
2022-07-25T01:52:30.226Z,37.09
2022-07-25T01:54:57.326Z,36.63
2022-07-25T01:57:25.000Z,37.19
2022-07-25T01:59:58.707Z,37.00
2022-07-25T02:02:26.147Z,36.92
2022-07-25T02:04:53.634Z,36.81
2022-07-25T02:07:20.798Z,36.76
2022-07-25T02:09:48.785Z,36.81
2022-07-25T02:12:18.434Z,37.29
2022-07-25T02:14:45.585Z,36.71
2022-07-25T02:17:12.768Z,36.62
2022-07-25T02:19:40.202Z,37.06
2022-07-25T02:22:07.445Z,37.09
2022-07-25T02:24:34.586Z,37.06
2022-07-25T02:27:01.937Z,37.58
2022-07-25T02:29:29.110Z,38.47
2022-07-25T02:31:56.235Z,37.28
2022-07-25T02:34:23.663Z,37.10
2022-07-25T02:36:50.752Z,37.45
2022-07-25T02:39:17.874Z,36.96
2022-07-25T02:41:45.253Z,36.78
2022-07-25T02:44:12.407Z,36.98
2022-07-25T02:46:39.502Z,37.73
2022-07-25T02:49:06.967Z,37.85
2022-07-25T02:51:34.119Z,38.01
2022-07-25T02:54:01.238Z,37.70
2022-07-25T02:56:30.135Z,37.59
2022-07-25T02:58:57.593Z,37.75
2022-07-25T03:01:24.857Z,38.97
2022-07-25T03:03:52.721Z,38.00
2022-07-25T03:06:19.954Z,38.75
2022-07-25T03:08:47.066Z,38.70
2022-07-25T03:11:14.478Z,39.51
2022-07-25T03:13:41.582Z,39.11
2022-07-25T03:16:09.778Z,38.89
2022-07-25T03:18:37.241Z,39.30
2022-07-25T03:21:04.463Z,40.38
2022-07-25T03:23:31.642Z,40.71
2022-07-25T03:25:59.002Z,41.36
2022-07-25T03:28:26.179Z,40.53
2022-07-25T03:30:53.294Z,41.00
2022-07-25T03:33:20.699Z,40.90
2022-07-25T03:35:47.842Z,40.09
2022-07-25T03:38:14.978Z,39.96
2022-07-25T03:40:42.368Z,40.52
2022-07-25T03:43:09.466Z,42.15
2022-07-25T03:45:36.684Z,41.57
2022-07-25T03:48:04.114Z,41.03
2022-07-25T03:50:31.307Z,40.08
2022-07-25T03:52:58.422Z,40.00
2022-07-25T03:55:25.806Z,41.13
2022-07-25T03:57:52.912Z,40.66
2022-07-25T04:00:20.045Z,40.25
2022-07-25T04:02:47.575Z,39.70
2022-07-25T04:05:14.722Z,39.50
2022-07-25T04:07:41.860Z,39.68
2022-07-25T04:10:09.538Z,40.04
2022-07-25T04:12:37.385Z,40.31
2022-07-25T04:15:04.789Z,39.08
2022-07-25T04:17:32.245Z,39.13
2022-07-25T04:19:59.830Z,38.80
2022-07-25T04:22:27.026Z,39.53
2022-07-25T04:24:54.393Z,41.32
2022-07-25T04:27:21.486Z,41.08
2022-07-25T04:29:48.620Z,39.43
2022-07-25T04:32:21.417Z,38.55
2022-07-25T04:34:52.292Z,39.42
2022-07-25T04:37:19.718Z,38.42
2022-07-25T04:39:46.849Z,38.44
2022-07-25T04:42:13.996Z,38.53
2022-07-25T04:44:41.375Z,39.78
2022-07-25T04:47:08.481Z,37.59
2022-07-25T04:49:35.573Z,37.45
2022-07-25T04:52:02.971Z,37.80
2022-07-25T04:54:30.092Z,38.65
2022-07-25T04:56:58.818Z,36.10
2022-07-25T04:59:26.201Z,34.40
2022-07-25T05:01:53.389Z,34.59
2022-07-25T05:04:20.534Z,32.42
2022-07-25T05:06:47.938Z,30.61
2022-07-25T05:09:15.086Z,28.46
2022-07-25T05:11:47.313Z,26.47
2022-07-25T05:14:16.138Z,24.59
2022-07-25T05:16:43.316Z,22.78
2022-07-25T05:19:10.508Z,21.50
2022-07-25T05:21:38.306Z,21.02
2022-07-25T05:24:05.732Z,20.23
2022-07-25T05:26:33.126Z,18.95
2022-07-25T05:29:00.579Z,18.01
2022-07-25T05:31:27.776Z,16.65
2022-07-25T05:33:54.914Z,16.19
2022-07-25T05:36:22.306Z,16.66
2022-07-25T05:38:49.443Z,15.82
2022-07-25T05:41:16.590Z,14.99
2022-07-25T05:43:46.146Z,16.76
2022-07-25T05:46:13.310Z,16.04
2022-07-25T05:48:40.830Z,14.95
2022-07-25T05:51:08.245Z,16.25
2022-07-25T05:53:35.441Z,14.54
2022-07-25T05:56:02.598Z,14.39
2022-07-25T05:58:30.291Z,14.21
2022-07-25T06:00:57.932Z,13.93
2022-07-25T06:03:25.369Z,14.84
2022-07-25T06:05:52.674Z,13.50
2022-07-25T06:08:19.821Z,12.88
2022-07-25T06:10:49.932Z,13.68
2022-07-25T06:13:17.099Z,12.46
2022-07-25T06:15:47.851Z,12.16
2022-07-25T06:18:15.597Z,12.31
2022-07-25T06:20:42.712Z,11.72
2022-07-25T06:23:09.854Z,11.81
2022-07-25T06:25:37.238Z,12.41
2022-07-25T06:28:04.506Z,11.33
2022-07-25T06:30:31.640Z,11.48
2022-07-25T06:32:59.011Z,10.08
2022-07-25T06:35:26.163Z,11.15
2022-07-25T06:37:53.274Z,10.89
2022-07-25T06:40:20.671Z,9.82
2022-07-25T06:42:47.851Z,9.83
2022-07-25T06:45:15.128Z,9.51
2022-07-25T06:47:43.005Z,9.27
2022-07-25T06:50:11.724Z,9.36
2022-07-25T06:52:39.150Z,8.93
2022-07-25T06:55:06.960Z,8.96
2022-07-25T06:57:34.158Z,11.05
2022-07-25T07:00:01.311Z,13.73
2022-07-25T07:02:28.684Z,13.96
2022-07-25T07:04:55.808Z,12.07
2022-07-25T07:07:23.041Z,16.01
2022-07-25T07:09:50.411Z,12.98
2022-07-25T07:12:17.518Z,11.77
2022-07-25T07:14:45.274Z,10.75
2022-07-25T07:17:12.670Z,10.23
2022-07-25T07:19:44.389Z,9.75
2022-07-25T07:22:11.590Z,9.29
2022-07-25T07:24:44.143Z,8.92
2022-07-25T07:27:12.321Z,9.83
2022-07-25T07:29:39.438Z,9.48
2022-07-25T07:32:07.110Z,9.74
2022-07-25T07:34:34.344Z,9.31
2022-07-25T07:37:02.494Z,8.84
2022-07-25T07:39:29.894Z,8.32
2022-07-25T07:41:57.027Z,9.06
2022-07-25T07:44:24.129Z,8.83
2022-07-25T07:46:51.529Z,8.60
2022-07-25T07:49:18.831Z,8.52
2022-07-25T07:51:46.014Z,8.39
2022-07-25T07:54:32.253Z,8.32
2022-07-25T07:56:59.384Z,8.26
2022-07-25T07:59:26.769Z,8.19
2022-07-25T08:01:54.039Z,8.20
2022-07-25T08:04:21.466Z,8.23
2022-07-25T08:06:48.568Z,7.37
2022-07-25T08:09:15.669Z,7.63
2022-07-25T08:11:43.121Z,8.35
2022-07-25T08:14:10.565Z,8.26
2022-07-25T08:16:37.944Z,8.26
2022-07-25T08:19:05.377Z,7.96
2022-07-25T08:21:32.510Z,7.31
2022-07-25T08:24:00.137Z,8.12
2022-07-25T08:26:27.974Z,8.04
2022-07-25T08:29:17.500Z,7.86
2022-07-25T08:31:43.156Z,7.06
2022-07-25T08:34:10.504Z,7.04
2022-07-25T08:36:38.169Z,8.77
2022-07-25T08:39:05.629Z,8.86
2022-07-25T08:41:33.364Z,7.41
2022-07-25T08:44:00.926Z,8.27
2022-07-25T08:46:30.148Z,9.72
2022-07-25T08:48:57.487Z,8.36
2022-07-25T08:51:24.655Z,7.04
2022-07-25T08:53:52.021Z,7.59
2022-07-25T08:56:21.357Z,8.33
2022-07-25T08:58:49.673Z,8.08
2022-07-25T09:01:17.197Z,7.60
2022-07-25T09:03:44.378Z,7.54
2022-07-25T09:06:15.532Z,8.17
2022-07-25T09:08:52.001Z,7.42
2022-07-25T09:11:28.977Z,7.88
2022-07-25T09:14:15.173Z,7.78
2022-07-25T09:16:44.250Z,8.20
2022-07-25T09:19:12.847Z,8.67
2022-07-25T09:21:40.239Z,7.70
2022-07-25T09:24:08.240Z,7.90
2022-07-25T09:26:44.909Z,7.23
2022-07-25T09:29:24.886Z,7.65
2022-07-25T09:31:52.801Z,6.73
2022-07-25T09:34:36.239Z,7.99
2022-07-25T09:37:10.213Z,8.18
2022-07-25T09:39:45.452Z,7.82
2022-07-25T09:42:32.969Z,7.60
2022-07-25T09:45:12.444Z,7.66
2022-07-25T09:47:54.910Z,9.18
2022-07-25T09:50:22.421Z,9.66
2022-07-25T09:52:50.415Z,9.07
2022-07-25T09:55:17.681Z,8.30
2022-07-25T09:57:48.977Z,7.92
2022-07-25T10:00:20.012Z,8.34
2022-07-25T10:02:50.220Z,8.04
2022-07-25T10:05:20.592Z,8.86
2022-07-25T10:07:49.499Z,8.06
2022-07-25T10:10:30.389Z,9.53
2022-07-25T10:12:58.933Z,8.18
2022-07-25T10:15:26.032Z,8.15
2022-07-25T10:18:01.999Z,8.24
2022-07-25T10:20:29.436Z,7.34
2022-07-25T10:22:57.553Z,8.56
2022-07-25T10:25:25.278Z,8.03
2022-07-25T10:27:59.854Z,8.02
2022-07-25T10:30:27.683Z,9.36
2022-07-25T10:32:58.562Z,9.34
2022-07-25T10:35:26.474Z,8.00
2022-07-25T10:37:54.135Z,8.32
2022-07-25T10:40:27.337Z,8.68
2022-07-25T10:42:58.205Z,7.62
2022-07-25T10:45:26.709Z,7.84
2022-07-25T10:47:54.186Z,7.82
2022-07-25T10:50:39.980Z,8.11
2022-07-25T10:53:09.233Z,8.08
2022-07-25T10:55:37.000Z,8.76
2022-07-25T10:58:22.181Z,11.69
2022-07-25T11:00:51.339Z,11.30
2022-07-25T11:03:18.958Z,11.41
2022-07-25T11:05:46.685Z,11.76
2022-07-25T11:08:22.643Z,12.40
2022-07-25T11:10:53.494Z,13.85
2022-07-25T11:13:21.166Z,15.86
2022-07-25T11:15:48.486Z,15.16
2022-07-25T11:18:15.668Z,15.56
2022-07-25T11:20:43.038Z,16.71
2022-07-25T11:23:10.125Z,17.32
2022-07-25T11:25:37.480Z,16.54
2022-07-25T11:28:04.934Z,18.20
2022-07-25T11:30:32.458Z,16.57
2022-07-25T11:33:01.387Z,17.17
2022-07-25T11:35:30.038Z,16.51
2022-07-25T11:37:57.411Z,18.27
2022-07-25T11:40:25.778Z,16.76
2022-07-25T11:42:54.123Z,18.06
2022-07-25T11:45:23.715Z,18.57
2022-07-25T11:48:01.694Z,18.16
2022-07-25T11:50:29.609Z,18.39
2022-07-25T11:53:03.568Z,18.31
2022-07-25T11:55:36.444Z,18.07
2022-07-25T11:58:04.094Z,18.33
2022-07-25T12:00:33.637Z,18.09
2022-07-25T12:03:13.055Z,19.32
2022-07-25T12:05:44.324Z,20.76
2022-07-25T12:08:19.086Z,19.50
2022-07-25T12:10:51.179Z,20.26
2022-07-25T12:13:22.244Z,19.82
2022-07-25T12:15:49.360Z,19.57
2022-07-25T12:18:16.465Z,19.60
2022-07-25T12:20:43.974Z,18.31
2022-07-25T12:23:11.572Z,18.32
2022-07-25T12:25:39.483Z,18.67
2022-07-25T12:28:07.196Z,19.41
2022-07-25T12:30:34.396Z,18.20
2022-07-25T12:33:01.582Z,18.30
2022-07-25T12:35:29.088Z,18.23
2022-07-25T12:37:56.234Z,18.03
2022-07-25T12:40:24.075Z,17.65
2022-07-25T12:42:51.587Z,17.77
2022-07-25T12:45:18.734Z,17.55
2022-07-25T12:47:46.213Z,17.17
2022-07-25T12:50:13.814Z,17.08
2022-07-25T12:52:41.335Z,17.23
2022-07-25T12:55:09.403Z,17.00
2022-07-25T12:57:36.892Z,17.58
2022-07-25T13:00:04.729Z,17.62
2022-07-25T13:02:31.928Z,18.34
2022-07-25T13:04:59.405Z,18.20
2022-07-25T13:07:26.558Z,18.25
2022-07-25T13:09:54.293Z,18.11
2022-07-25T13:12:23.569Z,17.69
2022-07-25T13:14:50.892Z,17.13
2022-07-25T13:17:18.014Z,17.92
2022-07-25T13:19:45.498Z,17.00
2022-07-25T13:22:12.685Z,16.77
2022-07-25T13:24:40.020Z,17.17
2022-07-25T13:27:07.468Z,17.28
2022-07-25T13:29:34.602Z,16.78
2022-07-25T13:32:01.988Z,17.95
2022-07-25T13:34:29.744Z,17.68
2022-07-25T13:36:56.902Z,17.07
2022-07-25T13:39:24.160Z,17.54
2022-07-25T13:41:51.605Z,17.79
2022-07-25T13:44:18.846Z,17.44
2022-07-25T13:46:49.819Z,18.12
2022-07-25T13:49:17.792Z,17.74
2022-07-25T13:51:45.612Z,17.31
2022-07-25T13:54:12.814Z,17.18
2022-07-25T13:56:41.489Z,17.24
2022-07-25T13:59:09.052Z,17.51
2022-07-25T14:01:36.355Z,17.28
2022-07-25T14:04:03.799Z,17.24
2022-07-25T14:06:30.910Z,17.54
2022-07-25T14:08:58.014Z,17.58
2022-07-25T14:11:30.367Z,17.92
2022-07-25T14:13:58.074Z,17.48
2022-07-25T14:16:25.433Z,17.70
2022-07-25T14:18:54.035Z,17.65
2022-07-25T14:21:21.168Z,17.44
2022-07-25T14:23:48.706Z,17.37
2022-07-25T14:26:15.862Z,17.62
2022-07-25T14:28:43.605Z,17.18
2022-07-25T14:31:11.490Z,17.01
2022-07-25T14:33:40.136Z,17.91
2022-07-25T14:36:10.203Z,17.62
2022-07-25T14:38:37.580Z,17.71
2022-07-25T14:41:10.475Z,17.68
2022-07-25T14:43:40.514Z,17.78
2022-07-25T14:46:08.328Z,17.58
2022-07-25T14:48:35.861Z,17.99
2022-07-25T14:51:03.403Z,17.79
2022-07-25T14:53:30.540Z,17.89
2022-07-25T14:55:57.657Z,18.13
2022-07-25T14:58:25.102Z,17.67
2022-07-25T15:00:52.318Z,17.38
2022-07-25T15:03:19.626Z,17.65
2022-07-25T15:05:47.023Z,18.05
2022-07-25T15:08:14.383Z,17.66
2022-07-25T15:10:41.526Z,17.99
2022-07-25T15:13:30.096Z,17.71
2022-07-25T15:15:56.252Z,17.45
2022-07-25T15:18:23.735Z,18.40
2022-07-25T15:20:51.856Z,18.29
2022-07-25T15:23:20.898Z,18.43
2022-07-25T15:26:04.455Z,18.55
2022-07-25T15:28:35.157Z,18.15
2022-07-25T15:31:02.715Z,17.83
2022-07-25T15:33:29.972Z,17.64
2022-07-25T15:35:57.101Z,17.56
2022-07-25T15:38:24.608Z,17.44
2022-07-25T15:40:51.724Z,17.40
2022-07-25T15:43:18.870Z,17.40
2022-07-25T15:45:46.320Z,17.59
2022-07-25T15:48:13.679Z,17.17
2022-07-25T15:50:42.595Z,17.33
2022-07-25T15:53:09.948Z,17.61
2022-07-25T15:55:37.296Z,17.13
2022-07-25T15:58:04.505Z,17.89
2022-07-25T16:00:31.904Z,17.51
2022-07-25T16:02:59.362Z,17.22
2022-07-25T16:05:26.469Z,17.55
2022-07-25T16:07:53.594Z,17.42
2022-07-25T16:10:20.995Z,18.12
2022-07-25T16:12:48.106Z,17.25
2022-07-25T16:15:16.107Z,17.58
2022-07-25T16:17:43.494Z,17.71
2022-07-25T16:20:11.566Z,17.83
2022-07-25T16:22:39.486Z,18.04
2022-07-25T16:25:06.999Z,17.79
2022-07-25T16:27:34.189Z,17.87
2022-07-25T16:30:01.489Z,17.80
2022-07-25T16:32:31.718Z,17.87
2022-07-25T16:34:58.854Z,18.14
2022-07-25T16:37:25.977Z,18.08
2022-07-25T16:39:53.438Z,18.09
2022-07-25T16:42:20.550Z,18.32
2022-07-25T16:44:48.562Z,18.16
2022-07-25T16:47:15.944Z,18.28
2022-07-25T16:49:43.081Z,18.68
2022-07-25T16:52:10.262Z,18.02
2022-07-25T16:54:37.795Z,18.82
2022-07-25T16:57:04.947Z,18.91
2022-07-25T16:59:32.051Z,18.66
2022-07-25T17:01:59.546Z,18.62
2022-07-25T17:04:27.236Z,18.84
2022-07-25T17:06:55.322Z,18.65
2022-07-25T17:09:23.207Z,18.72
2022-07-25T17:11:50.313Z,18.80
2022-07-25T17:14:17.471Z,19.11
2022-07-25T17:16:45.302Z,18.91
2022-07-25T17:19:12.460Z,18.75
2022-07-25T17:21:39.577Z,19.06
2022-07-25T17:24:07.206Z,19.39
2022-07-25T17:26:34.986Z,19.28
2022-07-25T17:29:02.116Z,19.39
2022-07-25T17:31:29.552Z,19.50
2022-07-25T17:33:56.753Z,19.67
2022-07-25T17:36:23.894Z,19.91
2022-07-25T17:38:51.283Z,20.22
2022-07-25T17:41:18.388Z,20.20
2022-07-25T17:43:45.482Z,20.20
2022-07-25T17:46:13.880Z,20.58
2022-07-25T17:48:41.160Z,20.70
2022-07-25T17:51:08.441Z,21.07
2022-07-25T17:53:35.845Z,21.41
2022-07-25T17:56:03.367Z,21.31
2022-07-25T17:58:31.409Z,21.62
2022-07-25T18:01:01.313Z,21.61
2022-07-25T18:03:29.586Z,22.05
2022-07-25T18:05:57.475Z,22.35
2022-07-25T18:08:24.594Z,22.44
2022-07-25T18:10:51.940Z,22.65
2022-07-25T18:13:19.098Z,22.99
2022-07-25T18:15:46.551Z,23.12
2022-07-25T18:18:18.472Z,23.31
2022-07-25T18:20:47.767Z,23.07
2022-07-25T18:23:15.163Z,23.23
2022-07-25T18:25:43.858Z,23.62
2022-07-25T18:28:11.638Z,23.26
2022-07-25T18:30:39.204Z,23.71
2022-07-25T18:33:07.355Z,23.85
2022-07-25T18:35:34.526Z,24.00
2022-07-25T18:38:01.928Z,24.43
2022-07-25T18:40:29.068Z,24.25
2022-07-25T18:42:56.191Z,24.54
2022-07-25T18:45:24.078Z,24.60
2022-07-25T18:47:52.102Z,24.58
2022-07-25T18:50:21.791Z,24.66
2022-07-25T18:52:49.214Z,24.57
2022-07-25T18:55:16.405Z,24.88
2022-07-25T18:57:44.794Z,24.90
2022-07-25T19:00:12.200Z,25.08
2022-07-25T19:02:39.350Z,25.09
2022-07-25T19:05:06.932Z,24.79
2022-07-25T19:07:34.691Z,24.80
2022-07-25T19:10:02.041Z,25.54
2022-07-25T19:12:29.168Z,25.29
2022-07-25T19:14:56.601Z,25.34
2022-07-25T19:17:24.057Z,25.92
2022-07-25T19:19:51.652Z,25.61
2022-07-25T19:22:19.429Z,25.68
2022-07-25T19:24:46.621Z,25.65
2022-07-25T19:27:14.824Z,25.70
2022-07-25T19:29:42.417Z,25.69
2022-07-25T19:32:09.598Z,25.84
2022-07-25T19:34:36.709Z,25.85
2022-07-25T19:37:04.116Z,25.82
2022-07-25T19:39:31.232Z,25.66
2022-07-25T19:41:58.341Z,25.70
2022-07-25T19:44:25.745Z,26.22
2022-07-25T19:46:54.229Z,25.99
2022-07-25T19:49:21.488Z,26.10
2022-07-25T19:51:49.022Z,26.32
2022-07-25T19:54:17.143Z,26.33
2022-07-25T19:56:44.277Z,26.20
2022-07-25T19:59:11.702Z,26.45
2022-07-25T20:01:39.405Z,26.42
2022-07-25T20:04:08.901Z,26.37
2022-07-25T20:06:36.596Z,26.46
2022-07-25T20:09:04.079Z,26.59
2022-07-25T20:11:31.669Z,26.67
2022-07-25T20:13:58.796Z,26.87
2022-07-25T20:16:25.996Z,27.15
2022-07-25T20:18:53.430Z,27.75
2022-07-25T20:21:20.585Z,28.02
2022-07-25T20:23:47.673Z,27.69
2022-07-25T20:26:15.048Z,27.80
2022-07-25T20:28:42.225Z,28.15
2022-07-25T20:31:09.387Z,28.29
2022-07-25T20:33:36.839Z,28.29
2022-07-25T20:36:04.190Z,28.39
2022-07-25T20:38:32.383Z,28.41
2022-07-25T20:40:59.782Z,28.62
2022-07-25T20:43:27.139Z,28.47
2022-07-25T20:45:54.357Z,28.32
2022-07-25T20:48:21.785Z,28.83
2022-07-25T20:50:48.905Z,28.69
2022-07-25T20:53:16.062Z,28.82
2022-07-25T20:55:43.424Z,29.12
2022-07-25T20:58:10.530Z,29.52
2022-07-25T21:00:37.721Z,29.58
2022-07-25T21:03:05.227Z,29.38
2022-07-25T21:05:37.554Z,29.68
2022-07-25T21:08:05.369Z,29.62
2022-07-25T21:10:32.516Z,29.36
2022-07-25T21:12:59.640Z,29.26
2022-07-25T21:15:27.018Z,29.60
2022-07-25T21:17:54.182Z,29.38
2022-07-25T21:20:21.339Z,29.74
2022-07-25T21:22:48.716Z,30.75
2022-07-25T21:25:15.825Z,30.70
2022-07-25T21:27:42.999Z,30.14
2022-07-25T21:30:10.589Z,31.05
2022-07-25T21:32:39.172Z,30.64
2022-07-25T21:35:06.420Z,30.38
2022-07-25T21:37:33.934Z,30.59
2022-07-25T21:40:01.062Z,31.51
2022-07-25T21:42:28.226Z,30.92
2022-07-25T21:44:55.629Z,31.12
2022-07-25T21:47:22.759Z,31.52
2022-07-25T21:50:08.281Z,31.65
2022-07-25T21:52:35.641Z,31.12
2022-07-25T21:55:02.897Z,30.88
2022-07-25T21:57:29.991Z,30.37
2022-07-25T21:59:57.381Z,30.65
2022-07-25T22:02:24.543Z,30.76
2022-07-25T22:04:51.944Z,30.88
2022-07-25T22:07:19.121Z,31.13
2022-07-25T22:09:46.326Z,31.08
2022-07-25T22:12:14.267Z,31.49
2022-07-25T22:14:41.433Z,31.70
2022-07-25T22:17:09.257Z,31.59
2022-07-25T22:19:36.624Z,31.78
2022-07-25T22:22:05.117Z,31.79
2022-07-25T22:24:32.235Z,31.79
2022-07-25T22:26:59.661Z,31.94
2022-07-25T22:29:26.762Z,31.99
2022-07-25T22:31:53.921Z,32.82
2022-07-25T22:34:21.412Z,31.94
2022-07-25T22:36:48.514Z,31.74
2022-07-25T22:39:16.720Z,31.74
2022-07-25T22:41:44.123Z,31.54
2022-07-25T22:44:11.254Z,31.78
2022-07-25T22:46:38.449Z,31.48
2022-07-25T22:49:06.226Z,31.67
2022-07-25T22:51:33.690Z,31.40
2022-07-25T22:54:00.823Z,31.08
2022-07-25T22:56:28.223Z,31.77
2022-07-25T22:58:55.320Z,30.76
2022-07-25T23:01:22.507Z,31.26
2022-07-25T23:03:50.281Z,31.12
2022-07-25T23:06:18.062Z,31.01
2022-07-25T23:08:45.274Z,31.40
2022-07-25T23:11:12.641Z,31.35
2022-07-25T23:13:39.738Z,31.50
2022-07-25T23:16:10.406Z,31.05
2022-07-25T23:18:38.272Z,31.41
2022-07-25T23:21:05.667Z,31.86
2022-07-25T23:23:32.816Z,32.61
2022-07-25T23:26:00.161Z,33.87
2022-07-25T23:28:27.373Z,33.26
2022-07-25T23:30:54.475Z,33.59
2022-07-25T23:33:25.307Z,33.05
2022-07-25T23:35:53.481Z,34.25
2022-07-25T23:38:20.907Z,34.17
2022-07-25T23:40:48.467Z,33.27
2022-07-25T23:43:18.946Z,33.08
2022-07-25T23:46:02.968Z,33.22
2022-07-25T23:48:30.284Z,33.03
2022-07-25T23:50:57.433Z,32.79
2022-07-25T23:53:24.809Z,33.26
2022-07-25T23:55:51.924Z,33.06
2022-07-25T23:58:19.031Z,33.40
